Terminal Aerodrome Forecast
Issued by NWS

Home | Current Version | Previous Version | Text Only | Print | Product List | Glossary On
Versions: 1 2 3 4 5 6 7 8 9 10 11 12 13 14 15 16
917
FTUS43 KDTX 261720
TAFMBS
TAF
KMBS 261720Z 2618/2718 26014G22KT P6SM BKN050
      TEMPO 2618/2622 6SM -SHRA
     FM270000 29009KT P6SM -SHRA SCT040 BKN070
     FM270300 28008KT P6SM BKN025
     FM270800 28007KT P6SM SCT040
     FM271700 30012KT P6SM BKN050=

USA.gov is the U.S. government's official web portal to all federal, state and local government web resources and services.